| Date | Time | Temp. (oF) | Dew Point (oF) | Rel. Hum. (%) | Press. (in.) | Wind Dir. | Wind Speed (mph) | Hourly Rainfall (in.) |
|
|---|---|---|---|---|---|---|---|---|---|
| 1 | 11/25 | 00:00 | 30 | 23 | 78 | 30.46 | NNW | 0 | 0.00 |
| 2 | 11/24 | 23:00 | 32 | 23 | 72 | 30.45 | S | 0 | 0.00 |
| 3 | 11/24 | 22:00 | 34 | 23 | 65 | 30.43 | S | 0 | 0.00 |
| 4 | 11/24 | 21:00 | 38 | 25 | 60 | 30.42 | NE | 0 | 0.00 |
| 5 | 11/24 | 20:00 | 40 | 25 | 57 | 30.39 | NNE | 0 | 0.00 |
| 6 | 11/24 | 19:00 | 42 | 26 | 53 | 30.37 | W | 0 | 0.00 |
| 7 | 11/24 | 18:00 | 44 | 25 | 49 | 30.35 | N | 2 | 0.00 |
| 8 | 11/24 | 17:00 | 45 | 25 | 46 | 30.31 | NNE | 0 | 0.00 |
| 9 | 11/24 | 16:00 | 47 | 26 | 44 | 30.27 | WNW | 4 | 0.00 |
| 10 | 11/24 | 15:00 | 48 | 26 | 43 | 30.25 | SSW | 5 | 0.00 |
| 11 | 11/24 | 14:00 | 49 | 27 | 43 | 30.25 | NNW | 5 | 0.00 |
| 12 | 11/24 | 13:00 | 49 | 27 | 44 | 30.25 | W | 8 | 0.00 |
| 13 | 11/24 | 12:00 | 47 | 26 | 45 | 30.27 | SSW | 5 | 0.00 |
| 14 | 11/24 | 11:00 | 45 | 25 | 46 | 30.28 | WSW | 2 | 0.00 |
| 15 | 11/24 | 10:00 | 41 | 24 | 51 | 30.28 | WSW | 0 | 0.00 |
| 16 | 11/24 | 09:00 | 38 | 20 | 49 | 30.27 | N | 3 | 0.00 |
| 17 | 11/24 | 08:00 | 34 | 19 | 54 | 30.26 | SSW | 3 | 0.00 |
| 18 | 11/24 | 07:00 | 33 | 18 | 56 | 30.23 | SSW | 2 | 0.00 |
| 19 | 11/24 | 06:00 | 34 | 20 | 58 | 30.23 | S | 0 | 0.00 |
| 20 | 11/24 | 05:00 | 31 | 20 | 66 | 30.20 | SSW | 0 | 0.00 |
| 21 | 11/24 | 04:00 | 30 | 22 | 73 | 30.19 | E | 0 | 0.00 |
| 22 | 11/24 | 03:00 | 28 | 21 | 76 | 30.19 | S | 0 | 0.00 |
| 23 | 11/24 | 02:00 | 28 | 20 | 73 | 30.20 | SSW | 0 | 0.00 |
| 24 | 11/24 | 01:00 | 28 | 20 | 73 | 30.19 | SSW | 0 | 0.00 |